createdAt,value
2019-03-22T00:02:09.071Z,12.30
2019-03-22T00:04:38.976Z,11.20
2019-03-22T00:07:08.925Z,12.18
2019-03-22T00:09:38.843Z,13.13
2019-03-22T00:12:08.763Z,10.82
2019-03-22T00:14:38.705Z,12.47
2019-03-22T00:17:08.641Z,12.73
2019-03-22T00:19:38.572Z,12.10
2019-03-22T00:22:08.515Z,11.63
2019-03-22T00:24:38.504Z,11.43
2019-03-22T00:27:16.323Z,11.38
2019-03-22T00:29:40.088Z,10.45
2019-03-22T00:32:10.084Z,13.15
2019-03-22T00:34:40.016Z,10.10
2019-03-22T00:37:09.950Z,12.78
2019-03-22T00:39:40.292Z,11.57
2019-03-22T00:42:10.320Z,11.60
2019-03-22T00:44:40.317Z,11.25
2019-03-22T00:47:10.335Z,11.68
2019-03-22T00:49:40.268Z,11.60
2019-03-22T00:52:10.176Z,12.33
2019-03-22T00:54:40.043Z,12.55
2019-03-22T00:57:09.981Z,11.83
2019-03-22T00:59:39.892Z,11.43
2019-03-22T01:02:09.825Z,11.20
2019-03-22T01:04:39.736Z,12.18
2019-03-22T01:07:09.668Z,12.30
2019-03-22T01:09:39.603Z,10.88
2019-03-22T01:12:09.551Z,12.95
2019-03-22T01:14:39.503Z,12.10
2019-03-22T01:17:09.495Z,11.63
2019-03-22T01:19:39.512Z,12.53
2019-03-22T01:22:09.431Z,12.47
2019-03-22T01:24:39.341Z,11.93
2019-03-22T01:27:09.350Z,12.65
2019-03-22T01:29:39.880Z,11.10
2019-03-22T01:32:09.804Z,10.40
2019-03-22T01:34:39.753Z,11.55
2019-03-22T01:37:10.663Z,13.65
2019-03-22T01:39:40.571Z,13.25
2019-03-22T01:42:10.524Z,12.45
2019-03-22T01:44:40.440Z,12.13
2019-03-22T01:47:10.343Z,10.23
2019-03-22T01:49:40.292Z,11.18
2019-03-22T01:52:10.280Z,12.28
2019-03-22T01:54:40.196Z,11.83
2019-03-22T01:57:10.162Z,11.70
2019-03-22T01:59:40.100Z,11.80
2019-03-22T02:02:10.028Z,11.88
2019-03-22T02:04:40.032Z,11.28
2019-03-22T02:07:09.952Z,11.75
2019-03-22T02:09:39.988Z,11.83
2019-03-22T02:12:09.904Z,11.55
2019-03-22T02:14:40.976Z,13.10
2019-03-22T02:17:10.899Z,12.28
2019-03-22T02:19:40.818Z,13.05
2019-03-22T02:22:10.823Z,11.12
2019-03-22T02:24:40.889Z,10.80
2019-03-22T02:27:10.816Z,11.88
2019-03-22T02:29:40.745Z,11.80
2019-03-22T02:32:10.776Z,11.90
2019-03-22T02:34:40.718Z,11.57
2019-03-22T02:37:11.086Z,11.05
2019-03-22T02:39:41.294Z,12.25
2019-03-22T02:42:11.288Z,11.95
2019-03-22T02:44:41.685Z,11.45
2019-03-22T02:47:11.613Z,12.35
2019-03-22T02:49:41.654Z,13.80
2019-03-22T02:52:11.597Z,12.88
2019-03-22T02:54:41.537Z,12.70
2019-03-22T02:57:11.536Z,12.37
2019-03-22T02:59:41.580Z,11.48
2019-03-22T03:02:11.504Z,12.35
2019-03-22T03:04:41.500Z,13.05
2019-03-22T03:07:11.501Z,13.35
2019-03-22T03:09:41.489Z,12.28
2019-03-22T03:12:11.428Z,11.65
2019-03-22T03:14:41.400Z,12.50
2019-03-22T03:17:11.321Z,12.13
2019-03-22T03:19:41.318Z,12.82
2019-03-22T03:22:11.299Z,12.10
2019-03-22T03:24:42.222Z,12.05
2019-03-22T03:27:12.136Z,12.10
2019-03-22T03:29:42.064Z,11.40
2019-03-22T03:32:11.985Z,11.05
2019-03-22T03:34:42.037Z,11.97
2019-03-22T03:37:12.071Z,12.47
2019-03-22T03:39:42.101Z,10.55
2019-03-22T03:42:12.012Z,12.18
2019-03-22T03:44:42.401Z,11.75
2019-03-22T03:47:12.416Z,13.08
2019-03-22T03:49:42.426Z,12.55
2019-03-22T03:52:12.424Z,12.18
2019-03-22T03:54:42.480Z,13.32
2019-03-22T03:57:12.503Z,11.63
2019-03-22T03:59:42.545Z,12.33
2019-03-22T04:02:12.478Z,14.35
2019-03-22T04:04:42.320Z,12.70
2019-03-22T04:07:12.257Z,12.20
2019-03-22T04:09:42.252Z,12.45
2019-03-22T04:12:12.168Z,13.18
2019-03-22T04:14:42.202Z,12.73
2019-03-22T04:17:12.233Z,11.70
2019-03-22T04:19:42.256Z,12.15
2019-03-22T04:22:12.171Z,11.95
2019-03-22T04:24:42.104Z,13.13
2019-03-22T04:27:12.108Z,12.33
2019-03-22T04:29:42.127Z,13.38
2019-03-22T04:32:12.123Z,12.88
2019-03-22T04:34:42.109Z,13.48
2019-03-22T04:37:12.095Z,12.60
2019-03-22T04:39:42.084Z,12.78
2019-03-22T04:42:11.998Z,12.90
2019-03-22T04:44:42.014Z,12.13
2019-03-22T04:47:14.256Z,12.15
2019-03-22T04:49:45.308Z,11.08
2019-03-22T04:52:15.844Z,11.88
2019-03-22T04:54:48.209Z,12.10
2019-03-22T04:57:20.324Z,13.20
2019-03-22T04:59:51.040Z,13.78
2019-03-22T05:02:22.019Z,12.03
2019-03-22T05:04:53.231Z,13.78
2019-03-22T05:07:23.459Z,12.07
2019-03-22T05:09:53.908Z,12.50
2019-03-22T05:12:24.896Z,11.70
2019-03-22T05:14:56.108Z,12.03
2019-03-22T05:17:27.441Z,12.40
2019-03-22T05:19:59.403Z,14.47
2019-03-22T05:22:32.329Z,11.80
2019-03-22T05:25:03.812Z,12.55
2019-03-22T05:27:36.747Z,12.15
2019-03-22T05:30:09.812Z,14.13
2019-03-22T05:32:39.735Z,12.30
2019-03-22T05:35:09.680Z,12.58
2019-03-22T05:37:39.600Z,13.00
2019-03-22T05:40:09.521Z,12.00
2019-03-22T05:42:39.457Z,13.03
2019-03-22T05:45:09.372Z,12.80
2019-03-22T05:47:39.313Z,12.58
2019-03-22T05:50:09.228Z,12.18
2019-03-22T05:52:40.376Z,12.85
2019-03-22T05:55:10.308Z,13.65
2019-03-22T05:57:40.220Z,14.13
2019-03-22T06:00:10.256Z,11.43
2019-03-22T06:02:40.335Z,13.25
2019-03-22T06:05:10.296Z,13.78
2019-03-22T06:07:40.292Z,12.80
2019-03-22T06:10:10.507Z,12.18
2019-03-22T06:12:40.809Z,13.43
2019-03-22T06:15:12.237Z,12.85
2019-03-22T06:17:51.210Z,13.10
2019-03-22T06:20:16.080Z,11.70
2019-03-22T06:22:46.062Z,13.98
2019-03-22T06:25:16.001Z,13.55
2019-03-22T06:27:46.001Z,12.80
2019-03-22T06:30:17.286Z,14.73
2019-03-22T06:32:47.316Z,14.07
2019-03-22T06:35:17.311Z,12.15
2019-03-22T06:37:47.283Z,12.10
2019-03-22T06:40:17.568Z,15.00
2019-03-22T06:42:47.487Z,12.25
2019-03-22T06:45:17.404Z,14.05
2019-03-22T06:47:47.371Z,12.80
2019-03-22T06:50:17.284Z,13.83
2019-03-22T06:52:47.200Z,12.37
2019-03-22T06:55:17.135Z,12.00
2019-03-22T06:57:47.052Z,12.10
2019-03-22T07:00:17.011Z,13.28
2019-03-22T07:02:46.929Z,13.68
2019-03-22T07:05:16.843Z,12.90
2019-03-22T07:07:46.788Z,13.28
2019-03-22T07:10:16.724Z,12.75
2019-03-22T07:12:48.516Z,12.98
2019-03-22T07:15:18.479Z,14.70
2019-03-22T07:17:48.470Z,14.00
2019-03-22T07:20:18.483Z,13.08
2019-03-22T07:22:48.532Z,13.93
2019-03-22T07:25:18.753Z,14.50
2019-03-22T07:27:48.809Z,13.58
2019-03-22T07:30:19.422Z,13.70
2019-03-22T07:32:49.453Z,14.00
2019-03-22T07:35:19.371Z,14.33
2019-03-22T07:37:49.413Z,14.25
2019-03-22T07:40:19.408Z,15.50
2019-03-22T07:42:49.326Z,15.28
2019-03-22T07:45:19.273Z,13.65
2019-03-22T07:47:49.271Z,14.98
2019-03-22T07:50:19.223Z,14.90
2019-03-22T07:52:49.151Z,14.43
2019-03-22T07:55:18.998Z,14.83
2019-03-22T07:57:49.015Z,15.40
2019-03-22T08:00:30.269Z,16.00
2019-03-22T08:02:51.160Z,16.25
2019-03-22T08:05:21.107Z,15.38
2019-03-22T08:07:51.117Z,16.70
2019-03-22T08:10:21.076Z,17.57
2019-03-22T08:12:51.106Z,16.70
2019-03-22T08:15:31.987Z,18.17
2019-03-22T08:18:02.448Z,18.43
2019-03-22T08:20:43.573Z,19.30
2019-03-22T08:23:21.558Z,18.00
2019-03-22T08:25:51.707Z,18.50
2019-03-22T08:28:21.713Z,19.27
2019-03-22T08:30:51.691Z,19.17
2019-03-22T08:33:21.713Z,19.90
2019-03-22T08:35:51.662Z,20.50
2019-03-22T08:38:21.668Z,20.20
2019-03-22T08:40:51.692Z,19.97
2019-03-22T08:43:21.707Z,20.17
2019-03-22T08:45:51.684Z,21.23
2019-03-22T08:48:21.651Z,19.50
2019-03-22T08:50:51.644Z,20.70
2019-03-22T08:53:21.581Z,19.90
2019-03-22T08:55:51.697Z,20.87
2019-03-22T08:58:21.721Z,20.37
2019-03-22T09:00:57.504Z,19.73
2019-03-22T09:03:23.359Z,19.80
2019-03-22T09:05:53.289Z,19.83
2019-03-22T09:08:23.251Z,20.77
2019-03-22T09:10:53.252Z,21.07
2019-03-22T09:13:23.180Z,20.57
2019-03-22T09:15:53.109Z,21.70
2019-03-22T09:18:23.146Z,23.50
2019-03-22T09:20:53.158Z,23.43
2019-03-22T09:23:23.152Z,22.90
2019-03-22T09:25:53.168Z,24.43
2019-03-22T09:28:24.192Z,24.93
2019-03-22T09:30:54.344Z,25.57
2019-03-22T09:33:24.448Z,25.80
2019-03-22T09:35:54.459Z,27.23
2019-03-22T09:38:24.464Z,26.97
2019-03-22T09:40:54.502Z,26.90
2019-03-22T09:43:24.484Z,25.30
2019-03-22T09:45:54.458Z,26.90
2019-03-22T09:48:24.435Z,29.97
2019-03-22T09:50:54.468Z,28.60
2019-03-22T09:53:24.473Z,25.83
2019-03-22T09:55:54.427Z,26.43
2019-03-22T09:58:24.340Z,26.80
2019-03-22T10:00:54.335Z,20.50
2019-03-22T10:03:24.283Z,23.40
2019-03-22T10:05:54.228Z,21.37
2019-03-22T10:08:24.382Z,25.20
2019-03-22T10:10:56.493Z,20.30
2019-03-22T10:13:26.460Z,23.37
2019-03-22T10:15:56.431Z,24.70
2019-03-22T10:18:26.485Z,25.73
2019-03-22T10:20:56.550Z,24.33
2019-03-22T10:23:26.714Z,25.07
2019-03-22T10:25:56.731Z,22.10
2019-03-22T10:28:26.735Z,26.57
2019-03-22T10:30:56.737Z,23.10
2019-03-22T10:33:26.741Z,23.10
2019-03-22T10:35:56.757Z,24.97
2019-03-22T10:38:31.892Z,24.07
2019-03-22T10:40:58.391Z,23.60
2019-03-22T10:43:28.341Z,23.17
2019-03-22T10:45:58.332Z,22.83
2019-03-22T10:48:28.284Z,21.87
2019-03-22T10:50:58.217Z,22.97
2019-03-22T10:53:28.236Z,22.40
2019-03-22T10:56:16.931Z,23.53
2019-03-22T10:58:46.856Z,24.23
2019-03-22T11:01:16.784Z,24.63
2019-03-22T11:03:46.824Z,21.10
2019-03-22T11:06:25.811Z,20.73
2019-03-22T11:08:48.656Z,23.00
2019-03-22T11:11:18.568Z,21.07
2019-03-22T11:13:48.500Z,20.13
2019-03-22T11:16:18.430Z,18.57
2019-03-22T11:18:48.428Z,19.10
2019-03-22T11:21:18.389Z,19.93
2019-03-22T11:23:50.184Z,13.60
2019-03-22T11:26:20.363Z,13.43
2019-03-22T11:28:50.307Z,13.33
2019-03-22T11:31:28.151Z,16.17
2019-03-22T11:33:51.872Z,17.57
2019-03-22T11:36:21.898Z,17.13
2019-03-22T11:38:51.816Z,15.93
2019-03-22T11:41:21.809Z,17.00
2019-03-22T11:43:51.751Z,16.40
2019-03-22T11:46:21.671Z,20.00
2019-03-22T11:48:51.676Z,17.87
2019-03-22T11:51:21.628Z,16.40
2019-03-22T11:53:51.554Z,18.30
2019-03-22T11:56:21.672Z,18.80
2019-03-22T11:58:51.672Z,18.13
2019-03-22T12:01:22.678Z,19.07
2019-03-22T12:03:52.884Z,17.23
2019-03-22T12:06:22.893Z,17.57
2019-03-22T12:08:52.833Z,17.87
2019-03-22T12:11:22.760Z,19.00
2019-03-22T12:13:52.788Z,19.40
2019-03-22T12:16:22.744Z,19.60
2019-03-22T12:18:52.704Z,20.27
2019-03-22T12:21:22.664Z,19.73
2019-03-22T12:23:52.611Z,15.20
2019-03-22T12:26:22.603Z,18.23
2019-03-22T12:28:52.539Z,18.40
2019-03-22T12:31:22.463Z,18.70
2019-03-22T12:33:52.416Z,19.63
2019-03-22T12:36:22.346Z,16.77
2019-03-22T12:38:52.331Z,16.80
2019-03-22T12:41:22.295Z,15.40
2019-03-22T12:43:52.218Z,15.00
2019-03-22T12:46:22.210Z,16.20
2019-03-22T12:48:52.241Z,15.23
2019-03-22T12:51:22.232Z,15.30
2019-03-22T12:53:52.155Z,15.80
2019-03-22T12:56:22.112Z,14.23
2019-03-22T12:58:52.036Z,13.13
2019-03-22T13:01:21.957Z,11.90
2019-03-22T13:03:51.916Z,11.87
2019-03-22T13:06:21.840Z,16.57
2019-03-22T13:08:52.069Z,17.10
2019-03-22T13:11:22.016Z,15.40
2019-03-22T13:13:51.956Z,16.77
2019-03-22T13:16:21.880Z,17.83
2019-03-22T13:18:51.829Z,17.63
2019-03-22T13:21:21.884Z,16.80
2019-03-22T13:23:51.924Z,17.17
2019-03-22T13:26:21.848Z,16.27
2019-03-22T13:28:51.768Z,17.60
2019-03-22T13:31:21.708Z,16.27
2019-03-22T13:33:51.655Z,17.57
2019-03-22T13:36:21.599Z,18.73
2019-03-22T13:38:51.529Z,17.50
2019-03-22T13:41:21.521Z,17.03
2019-03-22T13:43:51.456Z,18.30
2019-03-22T13:46:21.484Z,18.40
2019-03-22T13:48:51.504Z,17.50
2019-03-22T13:51:21.416Z,17.90
2019-03-22T13:53:51.404Z,17.27
2019-03-22T13:56:21.357Z,16.27
2019-03-22T13:58:51.276Z,17.93
2019-03-22T14:01:21.199Z,17.47
2019-03-22T14:03:51.211Z,16.97
2019-03-22T14:06:21.206Z,16.90
2019-03-22T14:08:51.146Z,16.97
2019-03-22T14:11:21.088Z,17.13
2019-03-22T14:13:52.828Z,17.57
2019-03-22T14:16:22.781Z,15.60
2019-03-22T14:18:52.704Z,15.37
2019-03-22T14:21:22.624Z,15.57
2019-03-22T14:23:52.572Z,15.50
2019-03-22T14:26:22.566Z,16.93
2019-03-22T14:28:52.508Z,16.77
2019-03-22T14:31:22.536Z,16.20
2019-03-22T14:33:52.564Z,15.50
2019-03-22T14:36:22.535Z,17.27
2019-03-22T14:38:52.472Z,16.70
2019-03-22T14:41:22.434Z,16.87
2019-03-22T14:43:52.858Z,16.90
2019-03-22T14:46:22.781Z,15.87
2019-03-22T14:48:52.712Z,16.90
2019-03-22T14:51:22.660Z,18.30
2019-03-22T14:53:52.608Z,15.50
2019-03-22T14:56:22.636Z,16.93
2019-03-22T14:58:52.688Z,17.83
2019-03-22T15:01:22.610Z,17.30
2019-03-22T15:03:52.644Z,16.30
2019-03-22T15:06:22.696Z,17.97
2019-03-22T15:08:52.615Z,18.80
2019-03-22T15:11:22.548Z,17.67
2019-03-22T15:14:11.421Z,18.20
2019-03-22T15:17:09.453Z,18.50
2019-03-22T15:19:59.792Z,18.00
2019-03-22T15:22:55.796Z,16.77
2019-03-22T15:25:38.420Z,18.63
2019-03-22T15:28:25.640Z,18.37
2019-03-22T15:31:11.660Z,19.23
2019-03-22T15:33:50.747Z,19.13
2019-03-22T15:36:51.717Z,18.50
2019-03-22T15:39:52.634Z,17.47
2019-03-22T15:42:23.051Z,17.13
2019-03-22T15:44:53.608Z,19.80
2019-03-22T15:47:23.580Z,17.73
2019-03-22T15:49:53.540Z,18.03
2019-03-22T15:52:23.497Z,18.47
2019-03-22T15:54:53.725Z,18.17
2019-03-22T15:57:23.737Z,18.33
2019-03-22T15:59:53.663Z,18.10
2019-03-22T16:02:23.615Z,18.73
2019-03-22T16:04:53.536Z,18.77
2019-03-22T16:07:23.476Z,21.70
2019-03-22T16:09:53.964Z,18.00
2019-03-22T16:12:25.050Z,20.20
2019-03-22T16:14:54.975Z,18.53
2019-03-22T16:17:24.987Z,16.53
2019-03-22T16:20:18.400Z,18.80
2019-03-22T16:26:10.683Z,19.93
2019-03-22T16:28:40.677Z,20.13
2019-03-22T16:31:10.598Z,18.93
2019-03-22T16:33:40.528Z,18.17
2019-03-22T16:36:10.476Z,19.63
2019-03-22T16:38:40.776Z,19.37
2019-03-22T16:41:10.703Z,18.67
2019-03-22T16:43:40.708Z,16.30
2019-03-22T16:46:10.634Z,16.63
2019-03-22T16:48:40.573Z,19.33
2019-03-22T16:51:10.571Z,17.83
2019-03-22T16:53:40.640Z,15.83
2019-03-22T16:56:10.637Z,18.00
2019-03-22T16:58:40.633Z,16.57
2019-03-22T17:01:10.676Z,16.67
2019-03-22T17:03:40.704Z,14.80
2019-03-22T17:06:10.634Z,18.23
2019-03-22T17:08:40.632Z,16.90
2019-03-22T17:11:10.645Z,16.30
2019-03-22T17:13:40.590Z,17.80
2019-03-22T17:16:10.658Z,19.63
2019-03-22T17:18:40.534Z,17.13
2019-03-22T17:21:10.464Z,20.70
2019-03-22T17:23:40.611Z,19.97
2019-03-22T17:26:10.755Z,18.90
2019-03-22T17:28:40.796Z,18.77
2019-03-22T17:31:10.737Z,18.00
2019-03-22T17:33:40.732Z,29.20
2019-03-22T17:36:10.716Z,21.40
2019-03-22T17:38:40.727Z,18.43
2019-03-22T17:41:10.656Z,20.97
2019-03-22T17:43:40.753Z,19.77
2019-03-22T17:46:10.704Z,18.43
2019-03-22T17:48:40.641Z,17.87
2019-03-22T17:51:10.573Z,18.73
2019-03-22T17:53:40.524Z,19.00
2019-03-22T17:56:10.520Z,19.07
2019-03-22T17:58:40.455Z,18.17
2019-03-22T18:01:10.477Z,18.27
2019-03-22T18:03:40.836Z,22.37
2019-03-22T18:06:10.833Z,23.00
2019-03-22T18:08:40.720Z,18.70
2019-03-22T18:11:10.645Z,21.43
2019-03-22T18:13:40.576Z,19.40
2019-03-22T18:16:10.517Z,19.13
2019-03-22T18:18:40.510Z,19.50
2019-03-22T18:21:10.460Z,21.83
2019-03-22T18:23:40.380Z,19.93
2019-03-22T18:26:10.296Z,19.63
2019-03-22T18:28:40.251Z,22.00
2019-03-22T18:31:10.215Z,24.00
2019-03-22T18:33:40.194Z,20.90
2019-03-22T18:36:10.100Z,20.50
2019-03-22T18:38:40.052Z,21.23
2019-03-22T18:41:09.959Z,21.40
2019-03-22T18:43:39.902Z,20.80
2019-03-22T18:46:09.818Z,22.20
2019-03-22T18:48:39.804Z,22.47
2019-03-22T18:51:09.744Z,21.13
2019-03-22T18:53:39.668Z,24.07
2019-03-22T18:56:09.572Z,22.90
2019-03-22T18:58:39.646Z,21.63
2019-03-22T19:01:10.633Z,23.80
2019-03-22T19:03:40.573Z,23.43
2019-03-22T19:06:10.530Z,22.73
2019-03-22T19:08:40.500Z,22.10
2019-03-22T19:11:10.452Z,20.47
2019-03-22T19:13:40.396Z,22.37
2019-03-22T19:16:10.323Z,24.30
2019-03-22T19:18:40.269Z,21.57
2019-03-22T19:21:10.220Z,20.67
2019-03-22T19:23:40.317Z,20.67
2019-03-22T19:26:10.248Z,22.20
2019-03-22T19:28:40.264Z,24.20
2019-03-22T19:31:10.197Z,22.67
2019-03-22T19:33:40.143Z,21.17
2019-03-22T19:36:10.162Z,20.20
2019-03-22T19:38:40.576Z,21.13
2019-03-22T19:41:12.314Z,19.50
2019-03-22T19:46:26.787Z,20.50
2019-03-22T19:48:56.711Z,21.47
2019-03-22T19:51:26.635Z,19.47
2019-03-22T19:53:56.679Z,22.63
2019-03-22T19:56:27.879Z,21.40
2019-03-22T19:58:58.296Z,20.87
2019-03-22T20:01:28.228Z,21.30
2019-03-22T20:03:58.165Z,20.40
2019-03-22T20:06:28.196Z,22.63
2019-03-22T20:08:58.231Z,20.57
2019-03-22T20:11:28.338Z,20.77
2019-03-22T20:13:59.040Z,20.90
2019-03-22T20:16:28.971Z,21.60
2019-03-22T20:18:58.894Z,21.07
2019-03-22T20:21:28.824Z,20.73
2019-03-22T20:23:58.756Z,19.63
2019-03-22T20:26:28.768Z,22.10
2019-03-22T20:28:58.711Z,21.10
2019-03-22T20:31:28.631Z,21.57
2019-03-22T20:33:58.559Z,21.53
2019-03-22T20:36:28.499Z,19.60
2019-03-22T20:39:00.000Z,19.80
2019-03-22T20:41:29.916Z,20.03
2019-03-22T20:43:59.907Z,20.77
2019-03-22T20:46:30.009Z,21.37
2019-03-22T20:48:59.943Z,20.73
2019-03-22T20:51:29.927Z,21.13
2019-03-22T20:53:59.866Z,21.50
2019-03-22T20:56:29.970Z,21.87
2019-03-22T20:58:59.892Z,21.30
2019-03-22T21:01:29.831Z,21.20
2019-03-22T21:03:59.760Z,19.60
2019-03-22T21:06:29.734Z,19.03
2019-03-22T21:08:59.674Z,20.97
2019-03-22T21:11:31.124Z,19.60
2019-03-22T21:14:01.156Z,20.32
2019-03-22T21:16:32.911Z,19.97
2019-03-22T21:19:04.672Z,19.43
2019-03-22T21:21:36.703Z,20.13
2019-03-22T21:24:08.676Z,20.92
2019-03-22T21:26:37.981Z,22.03
2019-03-22T21:29:07.847Z,20.50
2019-03-22T21:31:37.805Z,20.52
2019-03-22T21:34:07.870Z,20.90
2019-03-22T21:36:38.000Z,20.48
2019-03-22T21:39:08.771Z,23.23
2019-03-22T21:41:38.735Z,21.90
2019-03-22T21:44:09.061Z,20.20
2019-03-22T21:46:39.100Z,20.27
2019-03-22T21:49:09.043Z,23.62
2019-03-22T21:51:39.005Z,20.12
2019-03-22T21:54:08.928Z,19.95
2019-03-22T21:56:38.932Z,21.27
2019-03-22T21:59:08.884Z,19.77
2019-03-22T22:01:38.884Z,20.45
2019-03-22T22:04:08.849Z,20.68
2019-03-22T22:06:38.780Z,21.10
2019-03-22T22:09:08.709Z,26.70
2019-03-22T22:11:38.671Z,22.52
2019-03-22T22:14:08.666Z,19.57
2019-03-22T22:16:39.740Z,19.80
2019-03-22T22:19:09.755Z,23.42
2019-03-22T22:21:40.793Z,22.00
2019-03-22T22:24:10.745Z,21.75
2019-03-22T22:26:40.781Z,22.20
2019-03-22T22:29:10.785Z,21.90
2019-03-22T22:31:40.735Z,20.82
2019-03-22T22:34:10.680Z,21.90
2019-03-22T22:36:40.640Z,21.65
2019-03-22T22:39:10.564Z,20.60
2019-03-22T22:41:40.487Z,22.20
2019-03-22T22:44:10.444Z,20.68
2019-03-22T22:46:42.248Z,22.30
2019-03-22T22:49:12.259Z,22.65
2019-03-22T22:51:42.288Z,21.57
2019-03-22T22:54:12.284Z,21.57
2019-03-22T22:56:42.312Z,20.77
2019-03-22T22:59:12.304Z,22.77
2019-03-22T23:01:42.244Z,20.92
2019-03-22T23:04:12.211Z,22.13
2019-03-22T23:06:42.137Z,23.60
2019-03-22T23:09:12.111Z,22.87
2019-03-22T23:11:42.078Z,21.17
2019-03-22T23:14:12.008Z,23.00
2019-03-22T23:16:41.932Z,21.65
2019-03-22T23:19:12.873Z,22.02
2019-03-22T23:21:42.888Z,23.07
2019-03-22T23:24:12.848Z,21.57
2019-03-22T23:26:42.744Z,22.95
2019-03-22T23:29:12.679Z,23.80
2019-03-22T23:31:42.592Z,23.27
2019-03-22T23:34:12.525Z,21.23
2019-03-22T23:36:42.451Z,23.05
2019-03-22T23:39:12.391Z,23.05
2019-03-22T23:41:43.312Z,23.10
2019-03-22T23:44:13.244Z,24.23
2019-03-22T23:46:43.164Z,22.50
2019-03-22T23:49:13.092Z,21.77
2019-03-22T23:51:43.129Z,23.05
2019-03-22T23:54:13.115Z,21.85
2019-03-22T23:56:43.033Z,21.40
2019-03-22T23:59:12.973Z,23.95
